sensor_id;sensor_type;location;lat;lon;timestamp;temperature;humidity
44305;DHT22;30019;50.576;8.568;2022-08-19T00:00:08;20.50;99.90
44305;DHT22;30019;50.576;8.568;2022-08-19T00:02:34;20.50;99.90
44305;DHT22;30019;50.576;8.568;2022-08-19T00:05:00;20.50;99.90
44305;DHT22;30019;50.576;8.568;2022-08-19T00:07:26;20.50;99.90
44305;DHT22;30019;50.576;8.568;2022-08-19T00:09:51;20.40;99.90
44305;DHT22;30019;50.576;8.568;2022-08-19T00:12:17;20.40;99.90
44305;DHT22;30019;50.576;8.568;2022-08-19T00:14:43;20.40;99.90
44305;DHT22;30019;50.576;8.568;2022-08-19T00:17:09;20.40;99.90
44305;DHT22;30019;50.576;8.568;2022-08-19T00:19:36;20.30;99.90
44305;DHT22;30019;50.576;8.568;2022-08-19T00:22:02;20.30;99.90
44305;DHT22;30019;50.576;8.568;2022-08-19T00:24:28;20.30;99.90
44305;DHT22;30019;50.576;8.568;2022-08-19T00:26:55;20.30;99.90
44305;DHT22;30019;50.576;8.568;2022-08-19T00:29:22;20.30;99.90
44305;DHT22;30019;50.576;8.568;2022-08-19T00:31:49;20.20;99.90
44305;DHT22;30019;50.576;8.568;2022-08-19T00:34:18;20.20;99.90
44305;DHT22;30019;50.576;8.568;2022-08-19T00:36:44;20.20;99.90
44305;DHT22;30019;50.576;8.568;2022-08-19T00:39:11;20.20;99.90
44305;DHT22;30019;50.576;8.568;2022-08-19T00:41:37;20.20;99.90
44305;DHT22;30019;50.576;8.568;2022-08-19T00:44:15;20.20;99.90
44305;DHT22;30019;50.576;8.568;2022-08-19T00:46:43;20.10;99.90
44305;DHT22;30019;50.576;8.568;2022-08-19T00:49:14;20.10;99.90
44305;DHT22;30019;50.576;8.568;2022-08-19T00:51:41;20.10;99.90
44305;DHT22;30019;50.576;8.568;2022-08-19T00:54:08;20.00;99.90
44305;DHT22;30019;50.576;8.568;2022-08-19T00:56:35;20.00;99.90
44305;DHT22;30019;50.576;8.568;2022-08-19T00:59:01;19.90;99.90
44305;DHT22;30019;50.576;8.568;2022-08-19T01:01:27;19.90;99.90
44305;DHT22;30019;50.576;8.568;2022-08-19T01:03:53;19.80;99.90
44305;DHT22;30019;50.576;8.568;2022-08-19T01:06:18;19.70;99.90
44305;DHT22;30019;50.576;8.568;2022-08-19T01:08:44;19.70;99.90
44305;DHT22;30019;50.576;8.568;2022-08-19T01:11:10;19.60;99.90
44305;DHT22;30019;50.576;8.568;2022-08-19T01:13:36;19.60;99.90
44305;DHT22;30019;50.576;8.568;2022-08-19T01:16:05;19.50;99.90
44305;DHT22;30019;50.576;8.568;2022-08-19T01:18:35;19.50;99.90
44305;DHT22;30019;50.576;8.568;2022-08-19T01:21:08;19.40;99.90
44305;DHT22;30019;50.576;8.568;2022-08-19T01:23:34;19.50;99.90
44305;DHT22;30019;50.576;8.568;2022-08-19T01:26:21;19.40;99.90
44305;DHT22;30019;50.576;8.568;2022-08-19T01:28:49;19.40;99.90
44305;DHT22;30019;50.576;8.568;2022-08-19T01:31:19;19.40;99.90
44305;DHT22;30019;50.576;8.568;2022-08-19T01:33:47;19.30;99.90
44305;DHT22;30019;50.576;8.568;2022-08-19T01:36:19;19.20;99.90
44305;DHT22;30019;50.576;8.568;2022-08-19T01:38:47;19.20;99.90
44305;DHT22;30019;50.576;8.568;2022-08-19T01:41:14;19.20;99.90
44305;DHT22;30019;50.576;8.568;2022-08-19T01:43:40;19.10;99.90
44305;DHT22;30019;50.576;8.568;2022-08-19T01:46:06;19.20;99.90
44305;DHT22;30019;50.576;8.568;2022-08-19T01:48:40;19.10;99.90
44305;DHT22;30019;50.576;8.568;2022-08-19T01:51:06;19.10;99.90
44305;DHT22;30019;50.576;8.568;2022-08-19T01:53:32;19.10;99.90
44305;DHT22;30019;50.576;8.568;2022-08-19T01:55:59;19.10;99.90
44305;DHT22;30019;50.576;8.568;2022-08-19T01:58:30;19.00;99.90
44305;DHT22;30019;50.576;8.568;2022-08-19T02:00:57;19.00;99.90
44305;DHT22;30019;50.576;8.568;2022-08-19T02:03:23;19.00;99.90
44305;DHT22;30019;50.576;8.568;2022-08-19T02:05:57;19.00;99.90
44305;DHT22;30019;50.576;8.568;2022-08-19T02:08:26;19.00;99.90
44305;DHT22;30019;50.576;8.568;2022-08-19T02:10:51;19.00;99.90
44305;DHT22;30019;50.576;8.568;2022-08-19T02:13:17;19.00;99.90
44305;DHT22;30019;50.576;8.568;2022-08-19T02:15:43;19.00;99.90
44305;DHT22;30019;50.576;8.568;2022-08-19T02:18:08;19.00;99.90
44305;DHT22;30019;50.576;8.568;2022-08-19T02:20:35;19.00;99.90
44305;DHT22;30019;50.576;8.568;2022-08-19T02:23:01;19.00;99.90
44305;DHT22;30019;50.576;8.568;2022-08-19T02:25:27;19.00;99.90
44305;DHT22;30019;50.576;8.568;2022-08-19T02:27:53;19.00;99.90
44305;DHT22;30019;50.576;8.568;2022-08-19T02:30:20;19.10;99.90
44305;DHT22;30019;50.576;8.568;2022-08-19T02:32:45;19.10;99.90
44305;DHT22;30019;50.576;8.568;2022-08-19T02:35:12;19.20;99.90
44305;DHT22;30019;50.576;8.568;2022-08-19T02:37:38;19.10;99.90
44305;DHT22;30019;50.576;8.568;2022-08-19T02:40:23;19.10;99.90
44305;DHT22;30019;50.576;8.568;2022-08-19T02:42:49;19.10;99.90
44305;DHT22;30019;50.576;8.568;2022-08-19T02:45:14;19.00;99.90
44305;DHT22;30019;50.576;8.568;2022-08-19T02:47:40;19.00;99.90
44305;DHT22;30019;50.576;8.568;2022-08-19T02:50:06;19.00;99.90
44305;DHT22;30019;50.576;8.568;2022-08-19T02:52:33;18.90;99.90
44305;DHT22;30019;50.576;8.568;2022-08-19T02:54:59;18.90;99.90
44305;DHT22;30019;50.576;8.568;2022-08-19T02:57:25;18.90;99.90
44305;DHT22;30019;50.576;8.568;2022-08-19T02:59:52;18.90;99.90
44305;DHT22;30019;50.576;8.568;2022-08-19T03:02:18;18.90;99.90
44305;DHT22;30019;50.576;8.568;2022-08-19T03:04:44;18.90;99.90
44305;DHT22;30019;50.576;8.568;2022-08-19T03:07:12;18.90;99.90
44305;DHT22;30019;50.576;8.568;2022-08-19T03:09:39;18.90;99.90
44305;DHT22;30019;50.576;8.568;2022-08-19T03:12:05;18.80;99.90
44305;DHT22;30019;50.576;8.568;2022-08-19T03:14:32;18.80;99.90
44305;DHT22;30019;50.576;8.568;2022-08-19T03:16:58;18.80;99.90
44305;DHT22;30019;50.576;8.568;2022-08-19T03:19:23;18.90;99.90
44305;DHT22;30019;50.576;8.568;2022-08-19T03:21:50;18.90;99.90
44305;DHT22;30019;50.576;8.568;2022-08-19T03:24:16;18.90;99.90
44305;DHT22;30019;50.576;8.568;2022-08-19T03:26:48;18.90;99.90
44305;DHT22;30019;50.576;8.568;2022-08-19T03:29:15;18.90;99.90
44305;DHT22;30019;50.576;8.568;2022-08-19T03:31:43;18.90;99.90
44305;DHT22;30019;50.576;8.568;2022-08-19T03:34:15;18.90;99.90
44305;DHT22;30019;50.576;8.568;2022-08-19T03:36:41;18.90;99.90
44305;DHT22;30019;50.576;8.568;2022-08-19T03:39:06;18.80;99.90
44305;DHT22;30019;50.576;8.568;2022-08-19T03:41:38;18.80;99.90
44305;DHT22;30019;50.576;8.568;2022-08-19T03:44:04;18.80;99.90
44305;DHT22;30019;50.576;8.568;2022-08-19T03:46:32;18.70;99.90
44305;DHT22;30019;50.576;8.568;2022-08-19T03:49:00;18.70;99.90
44305;DHT22;30019;50.576;8.568;2022-08-19T03:51:30;18.70;99.90
44305;DHT22;30019;50.576;8.568;2022-08-19T03:53:58;18.70;99.90
44305;DHT22;30019;50.576;8.568;2022-08-19T03:56:24;18.60;99.90
44305;DHT22;30019;50.576;8.568;2022-08-19T03:58:51;18.60;99.90
44305;DHT22;30019;50.576;8.568;2022-08-19T04:01:20;18.60;99.90
44305;DHT22;30019;50.576;8.568;2022-08-19T04:03:47;18.60;99.90
44305;DHT22;30019;50.576;8.568;2022-08-19T04:06:15;18.60;99.90
44305;DHT22;30019;50.576;8.568;2022-08-19T04:08:41;18.60;99.90
44305;DHT22;30019;50.576;8.568;2022-08-19T04:11:19;18.60;99.90
44305;DHT22;30019;50.576;8.568;2022-08-19T04:13:49;18.60;99.90
44305;DHT22;30019;50.576;8.568;2022-08-19T04:16:17;18.60;99.90
44305;DHT22;30019;50.576;8.568;2022-08-19T04:18:43;18.50;99.90
44305;DHT22;30019;50.576;8.568;2022-08-19T04:21:16;18.50;99.90
44305;DHT22;30019;50.576;8.568;2022-08-19T04:23:42;18.50;99.90
44305;DHT22;30019;50.576;8.568;2022-08-19T04:26:13;18.50;99.90
44305;DHT22;30019;50.576;8.568;2022-08-19T04:28:40;18.50;99.90
44305;DHT22;30019;50.576;8.568;2022-08-19T04:31:06;18.40;99.90
44305;DHT22;30019;50.576;8.568;2022-08-19T04:33:33;18.50;99.90
44305;DHT22;30019;50.576;8.568;2022-08-19T04:35:58;18.40;99.90
44305;DHT22;30019;50.576;8.568;2022-08-19T04:38:25;18.50;99.90
44305;DHT22;30019;50.576;8.568;2022-08-19T04:40:51;18.50;99.90
44305;DHT22;30019;50.576;8.568;2022-08-19T04:43:38;18.50;99.90
44305;DHT22;30019;50.576;8.568;2022-08-19T04:46:08;18.50;99.90
44305;DHT22;30019;50.576;8.568;2022-08-19T04:48:42;18.50;99.90
44305;DHT22;30019;50.576;8.568;2022-08-19T04:51:29;18.50;99.90
44305;DHT22;30019;50.576;8.568;2022-08-19T04:53:56;18.40;99.90
44305;DHT22;30019;50.576;8.568;2022-08-19T04:56:22;18.40;99.90
44305;DHT22;30019;50.576;8.568;2022-08-19T04:58:49;18.40;99.90
44305;DHT22;30019;50.576;8.568;2022-08-19T05:01:24;18.50;99.90
44305;DHT22;30019;50.576;8.568;2022-08-19T05:03:50;18.40;99.90
44305;DHT22;30019;50.576;8.568;2022-08-19T05:06:17;18.50;99.90
44305;DHT22;30019;50.576;8.568;2022-08-19T05:08:44;18.50;99.90
44305;DHT22;30019;50.576;8.568;2022-08-19T05:11:16;18.50;99.90
44305;DHT22;30019;50.576;8.568;2022-08-19T05:13:43;18.60;99.90
44305;DHT22;30019;50.576;8.568;2022-08-19T05:16:10;18.60;99.90
44305;DHT22;30019;50.576;8.568;2022-08-19T05:18:37;18.60;99.90
44305;DHT22;30019;50.576;8.568;2022-08-19T05:21:22;18.60;99.90
44305;DHT22;30019;50.576;8.568;2022-08-19T05:24:07;18.70;99.90
44305;DHT22;30019;50.576;8.568;2022-08-19T05:26:37;18.70;99.90
44305;DHT22;30019;50.576;8.568;2022-08-19T05:29:04;18.70;99.90
44305;DHT22;30019;50.576;8.568;2022-08-19T05:31:31;18.80;99.90
44305;DHT22;30019;50.576;8.568;2022-08-19T05:33:57;18.80;99.90
44305;DHT22;30019;50.576;8.568;2022-08-19T05:36:25;18.90;99.90
44305;DHT22;30019;50.576;8.568;2022-08-19T05:38:51;18.90;99.90
44305;DHT22;30019;50.576;8.568;2022-08-19T05:41:18;19.00;99.90
44305;DHT22;30019;50.576;8.568;2022-08-19T05:43:43;19.10;99.90
44305;DHT22;30019;50.576;8.568;2022-08-19T05:46:16;19.20;99.90
44305;DHT22;30019;50.576;8.568;2022-08-19T05:48:43;19.20;99.90
44305;DHT22;30019;50.576;8.568;2022-08-19T05:51:11;19.30;99.90
44305;DHT22;30019;50.576;8.568;2022-08-19T05:53:37;19.40;99.90
44305;DHT22;30019;50.576;8.568;2022-08-19T05:56:05;19.50;99.90
44305;DHT22;30019;50.576;8.568;2022-08-19T05:58:32;19.50;99.90
44305;DHT22;30019;50.576;8.568;2022-08-19T06:00:58;19.60;99.90
44305;DHT22;30019;50.576;8.568;2022-08-19T06:03:32;19.70;99.90
44305;DHT22;30019;50.576;8.568;2022-08-19T06:05:59;19.90;99.90
44305;DHT22;30019;50.576;8.568;2022-08-19T06:08:26;20.00;99.90
44305;DHT22;30019;50.576;8.568;2022-08-19T06:10:53;20.00;99.90
44305;DHT22;30019;50.576;8.568;2022-08-19T06:13:18;20.20;99.90
44305;DHT22;30019;50.576;8.568;2022-08-19T06:15:45;20.30;99.90
44305;DHT22;30019;50.576;8.568;2022-08-19T06:18:12;20.40;99.90
44305;DHT22;30019;50.576;8.568;2022-08-19T06:20:37;20.50;99.90
44305;DHT22;30019;50.576;8.568;2022-08-19T06:23:03;20.60;99.90
44305;DHT22;30019;50.576;8.568;2022-08-19T06:25:29;20.70;99.90
44305;DHT22;30019;50.576;8.568;2022-08-19T06:27:55;20.70;99.90
44305;DHT22;30019;50.576;8.568;2022-08-19T06:30:21;20.80;99.90
44305;DHT22;30019;50.576;8.568;2022-08-19T06:32:46;20.90;99.90
44305;DHT22;30019;50.576;8.568;2022-08-19T06:35:12;21.00;99.90
44305;DHT22;30019;50.576;8.568;2022-08-19T06:37:38;21.00;99.90
44305;DHT22;30019;50.576;8.568;2022-08-19T06:40:04;21.10;99.90
44305;DHT22;30019;50.576;8.568;2022-08-19T06:42:30;21.20;99.90
44305;DHT22;30019;50.576;8.568;2022-08-19T06:44:56;21.20;99.90
44305;DHT22;30019;50.576;8.568;2022-08-19T06:47:25;21.20;99.90
44305;DHT22;30019;50.576;8.568;2022-08-19T06:49:57;21.30;99.90
44305;DHT22;30019;50.576;8.568;2022-08-19T06:52:31;21.30;99.90
44305;DHT22;30019;50.576;8.568;2022-08-19T06:55:01;21.40;99.90
44305;DHT22;30019;50.576;8.568;2022-08-19T06:57:27;21.60;99.90
44305;DHT22;30019;50.576;8.568;2022-08-19T06:59:58;21.70;99.90
44305;DHT22;30019;50.576;8.568;2022-08-19T07:02:26;21.90;99.90
44305;DHT22;30019;50.576;8.568;2022-08-19T07:04:53;22.10;99.90
44305;DHT22;30019;50.576;8.568;2022-08-19T07:07:20;22.20;99.90
44305;DHT22;30019;50.576;8.568;2022-08-19T07:09:49;22.40;99.90
44305;DHT22;30019;50.576;8.568;2022-08-19T07:12:15;22.60;99.90
44305;DHT22;30019;50.576;8.568;2022-08-19T07:14:41;22.60;99.90
44305;DHT22;30019;50.576;8.568;2022-08-19T07:17:10;22.70;99.90
44305;DHT22;30019;50.576;8.568;2022-08-19T07:19:37;22.80;99.90
44305;DHT22;30019;50.576;8.568;2022-08-19T07:22:06;22.80;99.90
44305;DHT22;30019;50.576;8.568;2022-08-19T07:24:33;22.90;99.90
44305;DHT22;30019;50.576;8.568;2022-08-19T07:27:00;23.00;99.90
44305;DHT22;30019;50.576;8.568;2022-08-19T07:29:29;23.10;99.90
44305;DHT22;30019;50.576;8.568;2022-08-19T07:31:56;23.20;99.90
44305;DHT22;30019;50.576;8.568;2022-08-19T07:34:24;23.20;99.90
44305;DHT22;30019;50.576;8.568;2022-08-19T07:36:50;23.20;99.90
44305;DHT22;30019;50.576;8.568;2022-08-19T07:39:26;23.10;99.80
44305;DHT22;30019;50.576;8.568;2022-08-19T07:41:53;23.10;99.90
44305;DHT22;30019;50.576;8.568;2022-08-19T07:44:20;23.20;99.90
44305;DHT22;30019;50.576;8.568;2022-08-19T07:46:49;23.20;99.50
44305;DHT22;30019;50.576;8.568;2022-08-19T07:49:16;23.40;99.60
44305;DHT22;30019;50.576;8.568;2022-08-19T07:51:51;23.50;99.60
44305;DHT22;30019;50.576;8.568;2022-08-19T07:54:18;23.60;98.70
44305;DHT22;30019;50.576;8.568;2022-08-19T07:56:44;23.70;98.70
44305;DHT22;30019;50.576;8.568;2022-08-19T07:59:11;23.70;98.50
44305;DHT22;30019;50.576;8.568;2022-08-19T08:01:37;23.70;98.00
44305;DHT22;30019;50.576;8.568;2022-08-19T08:04:06;23.70;98.10
44305;DHT22;30019;50.576;8.568;2022-08-19T08:06:51;23.80;97.60
44305;DHT22;30019;50.576;8.568;2022-08-19T08:09:38;24.30;97.50
44305;DHT22;30019;50.576;8.568;2022-08-19T08:12:08;24.70;96.40
44305;DHT22;30019;50.576;8.568;2022-08-19T08:14:46;25.00;95.70
44305;DHT22;30019;50.576;8.568;2022-08-19T08:17:14;24.80;95.60
44305;DHT22;30019;50.576;8.568;2022-08-19T08:19:40;24.20;96.80
44305;DHT22;30019;50.576;8.568;2022-08-19T08:22:10;24.20;96.80
44305;DHT22;30019;50.576;8.568;2022-08-19T08:24:55;24.30;96.80
44305;DHT22;30019;50.576;8.568;2022-08-19T08:27:24;24.40;96.20
44305;DHT22;30019;50.576;8.568;2022-08-19T08:29:50;24.50;96.30
44305;DHT22;30019;50.576;8.568;2022-08-19T08:32:15;24.50;96.20
44305;DHT22;30019;50.576;8.568;2022-08-19T08:34:42;24.60;95.70
44305;DHT22;30019;50.576;8.568;2022-08-19T08:37:08;24.40;96.20
44305;DHT22;30019;50.576;8.568;2022-08-19T08:39:33;24.60;95.90
44305;DHT22;30019;50.576;8.568;2022-08-19T08:42:12;24.90;95.40
44305;DHT22;30019;50.576;8.568;2022-08-19T08:45:05;24.90;94.70
44305;DHT22;30019;50.576;8.568;2022-08-19T08:48:35;24.80;95.00
44305;DHT22;30019;50.576;8.568;2022-08-19T08:51:07;24.80;94.50
44305;DHT22;30019;50.576;8.568;2022-08-19T08:53:34;24.70;94.80
44305;DHT22;30019;50.576;8.568;2022-08-19T08:56:03;24.70;94.50
44305;DHT22;30019;50.576;8.568;2022-08-19T08:58:36;24.70;95.10
44305;DHT22;30019;50.576;8.568;2022-08-19T09:01:09;24.30;95.00
44305;DHT22;30019;50.576;8.568;2022-08-19T09:03:37;24.40;95.70
44305;DHT22;30019;50.576;8.568;2022-08-19T09:06:12;24.70;94.90
44305;DHT22;30019;50.576;8.568;2022-08-19T09:08:48;24.90;94.20
44305;DHT22;30019;50.576;8.568;2022-08-19T09:16:35;24.70;94.70
44305;DHT22;30019;50.576;8.568;2022-08-19T09:19:05;25.00;93.40
44305;DHT22;30019;50.576;8.568;2022-08-19T09:21:31;25.20;93.70
44305;DHT22;30019;50.576;8.568;2022-08-19T09:23:56;25.60;93.00
44305;DHT22;30019;50.576;8.568;2022-08-19T09:26:39;25.80;91.80
44305;DHT22;30019;50.576;8.568;2022-08-19T09:29:05;25.70;91.60
44305;DHT22;30019;50.576;8.568;2022-08-19T09:31:32;25.50;92.30
44305;DHT22;30019;50.576;8.568;2022-08-19T09:33:58;25.80;91.70
44305;DHT22;30019;50.576;8.568;2022-08-19T09:36:27;25.80;91.50
44305;DHT22;30019;50.576;8.568;2022-08-19T09:38:59;26.30;91.20
44305;DHT22;30019;50.576;8.568;2022-08-19T09:41:26;26.50;89.80
44305;DHT22;30019;50.576;8.568;2022-08-19T09:43:54;26.50;89.20
44305;DHT22;30019;50.576;8.568;2022-08-19T09:46:23;26.80;87.20
44305;DHT22;30019;50.576;8.568;2022-08-19T09:48:50;27.00;86.40
44305;DHT22;30019;50.576;8.568;2022-08-19T09:51:22;26.90;85.70
44305;DHT22;30019;50.576;8.568;2022-08-19T09:53:49;27.30;86.10
44305;DHT22;30019;50.576;8.568;2022-08-19T09:56:20;27.60;85.20
44305;DHT22;30019;50.576;8.568;2022-08-19T09:58:46;27.90;84.50
44305;DHT22;30019;50.576;8.568;2022-08-19T10:01:25;28.10;82.40
44305;DHT22;30019;50.576;8.568;2022-08-19T10:03:53;28.00;82.10
44305;DHT22;30019;50.576;8.568;2022-08-19T10:06:20;27.70;82.70
44305;DHT22;30019;50.576;8.568;2022-08-19T10:08:46;27.60;80.40
44305;DHT22;30019;50.576;8.568;2022-08-19T10:11:13;27.50;79.00
44305;DHT22;30019;50.576;8.568;2022-08-19T10:13:41;27.90;77.90
44305;DHT22;30019;50.576;8.568;2022-08-19T10:16:11;28.10;79.10
44305;DHT22;30019;50.576;8.568;2022-08-19T10:18:37;28.10;78.10
44305;DHT22;30019;50.576;8.568;2022-08-19T10:21:09;28.90;74.70
44305;DHT22;30019;50.576;8.568;2022-08-19T10:23:38;28.80;73.00
44305;DHT22;30019;50.576;8.568;2022-08-19T10:26:07;28.60;71.30
44305;DHT22;30019;50.576;8.568;2022-08-19T10:28:34;28.30;72.50
44305;DHT22;30019;50.576;8.568;2022-08-19T10:31:12;28.50;71.60
44305;DHT22;30019;50.576;8.568;2022-08-19T10:33:38;28.00;73.00
44305;DHT22;30019;50.576;8.568;2022-08-19T10:36:11;27.60;75.90
44305;DHT22;30019;50.576;8.568;2022-08-19T10:38:37;28.10;73.90
44305;DHT22;30019;50.576;8.568;2022-08-19T10:41:18;29.00;73.20
44305;DHT22;30019;50.576;8.568;2022-08-19T10:43:45;28.60;71.80
44305;DHT22;30019;50.576;8.568;2022-08-19T10:46:13;28.10;73.90
44305;DHT22;30019;50.576;8.568;2022-08-19T10:48:40;27.80;75.80
44305;DHT22;30019;50.576;8.568;2022-08-19T10:51:06;28.60;74.30
44305;DHT22;30019;50.576;8.568;2022-08-19T10:53:51;29.20;72.00
44305;DHT22;30019;50.576;8.568;2022-08-19T10:56:17;28.30;72.00
44305;DHT22;30019;50.576;8.568;2022-08-19T10:59:03;28.10;72.50
44305;DHT22;30019;50.576;8.568;2022-08-19T11:01:30;27.30;75.50
44305;DHT22;30019;50.576;8.568;2022-08-19T11:03:56;27.10;75.70
44305;DHT22;30019;50.576;8.568;2022-08-19T11:06:25;28.10;73.60
44305;DHT22;30019;50.576;8.568;2022-08-19T11:08:52;29.00;70.80
44305;DHT22;30019;50.576;8.568;2022-08-19T11:11:18;29.90;69.20
44305;DHT22;30019;50.576;8.568;2022-08-19T11:13:44;29.90;67.00
44305;DHT22;30019;50.576;8.568;2022-08-19T11:16:14;29.10;67.40
44305;DHT22;30019;50.576;8.568;2022-08-19T11:18:48;28.30;70.50
44305;DHT22;30019;50.576;8.568;2022-08-19T11:21:29;28.20;70.30
44305;DHT22;30019;50.576;8.568;2022-08-19T11:24:03;29.00;70.70
44305;DHT22;30019;50.576;8.568;2022-08-19T11:26:32;29.60;69.20
44305;DHT22;30019;50.576;8.568;2022-08-19T11:28:59;31.20;65.00
44305;DHT22;30019;50.576;8.568;2022-08-19T11:31:27;30.70;65.30
44305;DHT22;30019;50.576;8.568;2022-08-19T11:33:53;29.40;66.70
44305;DHT22;30019;50.576;8.568;2022-08-19T11:36:20;28.80;70.50
44305;DHT22;30019;50.576;8.568;2022-08-19T11:38:50;28.80;69.80
44305;DHT22;30019;50.576;8.568;2022-08-19T11:41:18;28.30;70.60
44305;DHT22;30019;50.576;8.568;2022-08-19T11:43:44;28.00;72.50
44305;DHT22;30019;50.576;8.568;2022-08-19T11:46:12;28.10;71.40
44305;DHT22;30019;50.576;8.568;2022-08-19T11:48:38;28.10;70.50
44305;DHT22;30019;50.576;8.568;2022-08-19T11:51:07;28.10;70.20
44305;DHT22;30019;50.576;8.568;2022-08-19T11:53:35;27.90;71.10
44305;DHT22;30019;50.576;8.568;2022-08-19T11:56:01;27.60;71.60
44305;DHT22;30019;50.576;8.568;2022-08-19T11:58:27;28.10;70.20
44305;DHT22;30019;50.576;8.568;2022-08-19T12:00:54;28.80;68.70
44305;DHT22;30019;50.576;8.568;2022-08-19T12:03:21;30.00;65.90
44305;DHT22;30019;50.576;8.568;2022-08-19T12:05:46;30.70;63.60
44305;DHT22;30019;50.576;8.568;2022-08-19T12:08:13;31.50;61.30
44305;DHT22;30019;50.576;8.568;2022-08-19T12:10:39;31.10;61.10
44305;DHT22;30019;50.576;8.568;2022-08-19T12:13:07;30.80;60.30
44305;DHT22;30019;50.576;8.568;2022-08-19T12:15:38;30.80;60.30
44305;DHT22;30019;50.576;8.568;2022-08-19T12:18:06;30.50;61.20
44305;DHT22;30019;50.576;8.568;2022-08-19T12:20:38;30.00;60.70
44305;DHT22;30019;50.576;8.568;2022-08-19T12:23:05;29.50;61.70
44305;DHT22;30019;50.576;8.568;2022-08-19T12:25:31;28.80;65.40
44305;DHT22;30019;50.576;8.568;2022-08-19T12:27:57;28.30;65.40
44305;DHT22;30019;50.576;8.568;2022-08-19T12:30:23;28.10;66.40
44305;DHT22;30019;50.576;8.568;2022-08-19T12:32:49;27.70;68.10
44305;DHT22;30019;50.576;8.568;2022-08-19T12:35:16;27.60;68.20
44305;DHT22;30019;50.576;8.568;2022-08-19T12:37:42;27.40;69.00
44305;DHT22;30019;50.576;8.568;2022-08-19T12:40:10;27.20;68.80
44305;DHT22;30019;50.576;8.568;2022-08-19T12:42:37;27.10;68.60
44305;DHT22;30019;50.576;8.568;2022-08-19T12:45:07;27.20;68.90
44305;DHT22;30019;50.576;8.568;2022-08-19T12:47:32;27.30;68.40
44305;DHT22;30019;50.576;8.568;2022-08-19T12:49:58;27.60;68.70
44305;DHT22;30019;50.576;8.568;2022-08-19T12:52:25;28.10;68.00
44305;DHT22;30019;50.576;8.568;2022-08-19T12:54:53;28.80;64.80
44305;DHT22;30019;50.576;8.568;2022-08-19T12:57:19;29.20;64.00
44305;DHT22;30019;50.576;8.568;2022-08-19T12:59:45;29.00;63.30
44305;DHT22;30019;50.576;8.568;2022-08-19T13:02:10;28.40;63.50
44305;DHT22;30019;50.576;8.568;2022-08-19T13:04:36;28.10;64.80
44305;DHT22;30019;50.576;8.568;2022-08-19T13:07:06;28.00;65.30
44305;DHT22;30019;50.576;8.568;2022-08-19T13:09:33;27.80;65.30
44305;DHT22;30019;50.576;8.568;2022-08-19T13:11:58;27.80;65.00
44305;DHT22;30019;50.576;8.568;2022-08-19T13:14:28;27.40;67.30
44305;DHT22;30019;50.576;8.568;2022-08-19T13:16:55;27.30;68.00
44305;DHT22;30019;50.576;8.568;2022-08-19T13:19:22;27.50;66.90
44305;DHT22;30019;50.576;8.568;2022-08-19T13:21:52;27.50;65.90
44305;DHT22;30019;50.576;8.568;2022-08-19T13:24:19;27.70;66.00
44305;DHT22;30019;50.576;8.568;2022-08-19T13:26:44;27.70;64.90
44305;DHT22;30019;50.576;8.568;2022-08-19T13:29:10;27.80;64.50
44305;DHT22;30019;50.576;8.568;2022-08-19T13:31:54;27.70;65.40
44305;DHT22;30019;50.576;8.568;2022-08-19T13:34:39;27.70;65.00
44305;DHT22;30019;50.576;8.568;2022-08-19T13:37:05;27.70;64.60
44305;DHT22;30019;50.576;8.568;2022-08-19T13:39:31;27.70;64.60
44305;DHT22;30019;50.576;8.568;2022-08-19T13:41:57;27.70;65.10
44305;DHT22;30019;50.576;8.568;2022-08-19T13:44:26;27.80;64.30
44305;DHT22;30019;50.576;8.568;2022-08-19T13:46:55;27.90;64.50
44305;DHT22;30019;50.576;8.568;2022-08-19T13:49:20;28.30;63.90
44305;DHT22;30019;50.576;8.568;2022-08-19T13:51:48;28.60;63.50
44305;DHT22;30019;50.576;8.568;2022-08-19T13:54:14;28.80;63.00
44305;DHT22;30019;50.576;8.568;2022-08-19T13:56:43;28.80;62.60
44305;DHT22;30019;50.576;8.568;2022-08-19T13:59:10;28.60;62.20
44305;DHT22;30019;50.576;8.568;2022-08-19T14:01:36;28.70;62.40
44305;DHT22;30019;50.576;8.568;2022-08-19T14:04:03;29.20;62.20
44305;DHT22;30019;50.576;8.568;2022-08-19T14:06:28;29.30;60.80
44305;DHT22;30019;50.576;8.568;2022-08-19T14:08:54;29.00;61.50
44305;DHT22;30019;50.576;8.568;2022-08-19T14:11:20;28.60;62.90
44305;DHT22;30019;50.576;8.568;2022-08-19T14:13:45;28.40;64.00
44305;DHT22;30019;50.576;8.568;2022-08-19T14:16:13;28.20;64.50
44305;DHT22;30019;50.576;8.568;2022-08-19T14:18:39;28.00;64.80
44305;DHT22;30019;50.576;8.568;2022-08-19T14:21:05;27.90;64.70
44305;DHT22;30019;50.576;8.568;2022-08-19T14:23:33;27.90;64.30
44305;DHT22;30019;50.576;8.568;2022-08-19T14:26:10;27.90;64.50
44305;DHT22;30019;50.576;8.568;2022-08-19T14:28:37;27.90;64.40
44305;DHT22;30019;50.576;8.568;2022-08-19T14:31:05;27.90;65.20
44305;DHT22;30019;50.576;8.568;2022-08-19T14:33:30;27.80;64.60
44305;DHT22;30019;50.576;8.568;2022-08-19T14:35:57;27.60;65.00
44305;DHT22;30019;50.576;8.568;2022-08-19T14:38:23;27.50;65.10
44305;DHT22;30019;50.576;8.568;2022-08-19T14:40:48;27.40;66.40
44305;DHT22;30019;50.576;8.568;2022-08-19T14:43:14;27.60;66.00
44305;DHT22;30019;50.576;8.568;2022-08-19T14:45:40;27.60;66.10
44305;DHT22;30019;50.576;8.568;2022-08-19T14:48:07;27.60;65.30
44305;DHT22;30019;50.576;8.568;2022-08-19T14:50:34;27.70;66.50
44305;DHT22;30019;50.576;8.568;2022-08-19T14:53:04;27.70;65.00
44305;DHT22;30019;50.576;8.568;2022-08-19T14:55:31;27.70;65.40
44305;DHT22;30019;50.576;8.568;2022-08-19T14:57:57;27.80;65.10
44305;DHT22;30019;50.576;8.568;2022-08-19T15:00:23;27.90;65.80
44305;DHT22;30019;50.576;8.568;2022-08-19T15:02:49;28.00;65.10
44305;DHT22;30019;50.576;8.568;2022-08-19T15:05:16;27.90;64.30
44305;DHT22;30019;50.576;8.568;2022-08-19T15:07:42;27.90;63.90
44305;DHT22;30019;50.576;8.568;2022-08-19T15:10:10;27.90;64.50
44305;DHT22;30019;50.576;8.568;2022-08-19T15:12:36;27.80;63.70
44305;DHT22;30019;50.576;8.568;2022-08-19T15:15:06;27.70;64.00
44305;DHT22;30019;50.576;8.568;2022-08-19T15:17:31;27.60;64.50
44305;DHT22;30019;50.576;8.568;2022-08-19T15:19:57;27.60;64.10
44305;DHT22;30019;50.576;8.568;2022-08-19T15:22:23;27.60;64.70
44305;DHT22;30019;50.576;8.568;2022-08-19T15:24:49;27.60;64.30
44305;DHT22;30019;50.576;8.568;2022-08-19T15:27:14;27.60;63.90
44305;DHT22;30019;50.576;8.568;2022-08-19T15:29:40;27.70;64.40
44305;DHT22;30019;50.576;8.568;2022-08-19T15:32:07;27.80;64.30
44305;DHT22;30019;50.576;8.568;2022-08-19T15:34:33;27.70;64.00
44305;DHT22;30019;50.576;8.568;2022-08-19T15:37:00;27.70;64.10
44305;DHT22;30019;50.576;8.568;2022-08-19T15:39:25;27.70;64.00
44305;DHT22;30019;50.576;8.568;2022-08-19T15:41:51;27.80;64.00